sensor_id;sensor_type;location;lat;lon;timestamp;pressure;altitude;pressure_sealevel;temperature;humidity
66762;BME280;53672;48.176;16.338;2023-04-08T00:03:45;99161.41;;;4.87;100.00
66762;BME280;53672;48.176;16.338;2023-04-08T00:08:47;99169.97;;;4.73;100.00
66762;BME280;53672;48.176;16.338;2023-04-08T00:13:47;99171.59;;;4.29;100.00
66762;BME280;53672;48.176;16.338;2023-04-08T00:18:48;99171.53;;;4.12;100.00
66762;BME280;53672;48.176;16.338;2023-04-08T00:23:50;99177.34;;;4.09;100.00
66762;BME280;53672;48.176;16.338;2023-04-08T00:28:50;99174.91;;;3.68;100.00
66762;BME280;53672;48.176;16.338;2023-04-08T00:33:51;99181.63;;;3.70;100.00
66762;BME280;53672;48.176;16.338;2023-04-08T00:38:53;99187.88;;;3.64;100.00
66762;BME280;53672;48.176;16.338;2023-04-08T00:43:53;99196.59;;;3.48;100.00
66762;BME280;53672;48.176;16.338;2023-04-08T00:48:54;99194.53;;;3.38;100.00
66762;BME280;53672;48.176;16.338;2023-04-08T00:53:56;99194.97;;;3.24;100.00
66762;BME280;53672;48.176;16.338;2023-04-08T00:58:57;99194.19;;;3.35;100.00
66762;BME280;53672;48.176;16.338;2023-04-08T01:04:05;99199.84;;;3.38;100.00
66762;BME280;53672;48.176;16.338;2023-04-08T01:09:09;99194.03;;;3.30;100.00
66762;BME280;53672;48.176;16.338;2023-04-08T01:14:16;99193.25;;;3.18;100.00
66762;BME280;53672;48.176;16.338;2023-04-08T01:19:24;99199.03;;;3.26;100.00
66762;BME280;53672;48.176;16.338;2023-04-08T01:24:30;99193.69;;;3.03;100.00
66762;BME280;53672;48.176;16.338;2023-04-08T01:29:35;99203.16;;;2.87;100.00
66762;BME280;53672;48.176;16.338;2023-04-08T01:34:38;99204.41;;;2.85;100.00
66762;BME280;53672;48.176;16.338;2023-04-08T01:39:40;99196.31;;;2.91;100.00
66762;BME280;53672;48.176;16.338;2023-04-08T01:44:42;99201.22;;;2.94;100.00
66762;BME280;53672;48.176;16.338;2023-04-08T01:49:44;99208.03;;;2.90;100.00
66762;BME280;53672;48.176;16.338;2023-04-08T01:54:45;99202.59;;;2.97;100.00
66762;BME280;53672;48.176;16.338;2023-04-08T01:59:49;99194.25;;;2.93;100.00
66762;BME280;53672;48.176;16.338;2023-04-08T02:04:51;99190.31;;;2.96;100.00
66762;BME280;53672;48.176;16.338;2023-04-08T02:09:52;99205.81;;;2.99;100.00
66762;BME280;53672;48.176;16.338;2023-04-08T02:14:54;99204.19;;;2.86;100.00
66762;BME280;53672;48.176;16.338;2023-04-08T02:19:59;99198.38;;;2.66;100.00
66762;BME280;53672;48.176;16.338;2023-04-08T02:25:03;99204.47;;;2.55;100.00
66762;BME280;53672;48.176;16.338;2023-04-08T02:30:10;99213.72;;;2.52;100.00
66762;BME280;53672;48.176;16.338;2023-04-08T02:35:11;99199.09;;;2.43;100.00
66762;BME280;53672;48.176;16.338;2023-04-08T02:40:30;99216.13;;;2.54;100.00
66762;BME280;53672;48.176;16.338;2023-04-08T02:45:37;99212.56;;;2.30;100.00
66762;BME280;53672;48.176;16.338;2023-04-08T02:50:38;99220.25;;;2.38;100.00
66762;BME280;53672;48.176;16.338;2023-04-08T02:55:38;99217.22;;;2.35;100.00
66762;BME280;53672;48.176;16.338;2023-04-08T03:00:40;99213.84;;;2.10;100.00
66762;BME280;53672;48.176;16.338;2023-04-08T03:05:40;99215.22;;;2.00;100.00
66762;BME280;53672;48.176;16.338;2023-04-08T03:10:41;99226.66;;;1.83;100.00
66762;BME280;53672;48.176;16.338;2023-04-08T03:15:43;99221.47;;;1.70;100.00
66762;BME280;53672;48.176;16.338;2023-04-08T03:20:43;99221.25;;;1.89;100.00
66762;BME280;53672;48.176;16.338;2023-04-08T03:25:44;99228.56;;;1.76;100.00
66762;BME280;53672;48.176;16.338;2023-04-08T03:30:46;99228.81;;;1.74;100.00
66762;BME280;53672;48.176;16.338;2023-04-08T03:35:46;99232.94;;;1.70;100.00
66762;BME280;53672;48.176;16.338;2023-04-08T03:40:47;99234.69;;;1.76;100.00
66762;BME280;53672;48.176;16.338;2023-04-08T03:45:49;99242.16;;;1.68;100.00
66762;BME280;53672;48.176;16.338;2023-04-08T03:50:49;99241.03;;;1.57;100.00
66762;BME280;53672;48.176;16.338;2023-04-08T03:55:49;99248.56;;;1.60;100.00
66762;BME280;53672;48.176;16.338;2023-04-08T04:00:51;99256.44;;;1.48;100.00
66762;BME280;53672;48.176;16.338;2023-04-08T04:05:52;99256.88;;;1.45;100.00
66762;BME280;53672;48.176;16.338;2023-04-08T04:10:52;99261.41;;;1.38;100.00
66762;BME280;53672;48.176;16.338;2023-04-08T04:15:54;99267.34;;;1.40;100.00
66762;BME280;53672;48.176;16.338;2023-04-08T04:20:55;99266.28;;;1.41;100.00
66762;BME280;53672;48.176;16.338;2023-04-08T04:25:55;99268.13;;;1.41;100.00
66762;BME280;53672;48.176;16.338;2023-04-08T04:30:57;99276.66;;;1.49;100.00
66762;BME280;53672;48.176;16.338;2023-04-08T04:35:57;99270.72;;;1.47;100.00
66762;BME280;53672;48.176;16.338;2023-04-08T04:40:58;99268.88;;;1.48;100.00
66762;BME280;53672;48.176;16.338;2023-04-08T04:45:59;99277.09;;;1.65;100.00
66762;BME280;53672;48.176;16.338;2023-04-08T04:51:00;99276.81;;;1.73;100.00
66762;BME280;53672;48.176;16.338;2023-04-08T04:56:01;99282.44;;;1.83;100.00
66762;BME280;53672;48.176;16.338;2023-04-08T05:01:03;99286.75;;;1.84;100.00
66762;BME280;53672;48.176;16.338;2023-04-08T05:06:03;99290.72;;;1.93;100.00
66762;BME280;53672;48.176;16.338;2023-04-08T05:11:08;99296.78;;;2.00;100.00
66762;BME280;53672;48.176;16.338;2023-04-08T05:16:10;99306.31;;;2.08;100.00
66762;BME280;53672;48.176;16.338;2023-04-08T05:21:10;99308.97;;;2.08;100.00
66762;BME280;53672;48.176;16.338;2023-04-08T05:26:10;99304.97;;;2.17;100.00
66762;BME280;53672;48.176;16.338;2023-04-08T05:31:14;99313.69;;;2.24;100.00
66762;BME280;53672;48.176;16.338;2023-04-08T05:36:15;99321.22;;;2.27;100.00
66762;BME280;53672;48.176;16.338;2023-04-08T05:41:15;99329.03;;;2.40;100.00
66762;BME280;53672;48.176;16.338;2023-04-08T05:46:17;99327.13;;;2.47;100.00
66762;BME280;53672;48.176;16.338;2023-04-08T05:51:17;99336.38;;;2.44;100.00
66762;BME280;53672;48.176;16.338;2023-04-08T05:56:18;99339.25;;;2.43;100.00
66762;BME280;53672;48.176;16.338;2023-04-08T06:01:20;99350.03;;;2.48;100.00
66762;BME280;53672;48.176;16.338;2023-04-08T06:06:20;99343.00;;;2.53;100.00
66762;BME280;53672;48.176;16.338;2023-04-08T06:11:21;99359.94;;;2.59;100.00
66762;BME280;53672;48.176;16.338;2023-04-08T06:16:23;99355.09;;;2.68;100.00
66762;BME280;53672;48.176;16.338;2023-04-08T06:21:23;99349.69;;;2.74;100.00
66762;BME280;53672;48.176;16.338;2023-04-08T06:26:23;99356.81;;;2.80;100.00
66762;BME280;53672;48.176;16.338;2023-04-08T06:31:25;99360.19;;;2.87;100.00
66762;BME280;53672;48.176;16.338;2023-04-08T06:36:26;99359.66;;;2.97;100.00
66762;BME280;53672;48.176;16.338;2023-04-08T06:41:26;99368.22;;;2.99;100.00
66762;BME280;53672;48.176;16.338;2023-04-08T06:46:28;99369.97;;;3.05;100.00
66762;BME280;53672;48.176;16.338;2023-04-08T06:51:28;99373.25;;;3.07;100.00
66762;BME280;53672;48.176;16.338;2023-04-08T06:56:29;99371.19;;;3.21;100.00
66762;BME280;53672;48.176;16.338;2023-04-08T07:01:31;99373.25;;;3.19;100.00
66762;BME280;53672;48.176;16.338;2023-04-08T07:06:31;99381.19;;;3.25;100.00
66762;BME280;53672;48.176;16.338;2023-04-08T07:11:32;99385.25;;;3.28;100.00
66762;BME280;53672;48.176;16.338;2023-04-08T07:16:34;99386.06;;;3.40;100.00
66762;BME280;53672;48.176;16.338;2023-04-08T07:21:34;99398.97;;;3.54;100.00
66762;BME280;53672;48.176;16.338;2023-04-08T07:26:34;99395.63;;;3.59;100.00
66762;BME280;53672;48.176;16.338;2023-04-08T07:31:36;99406.19;;;3.66;100.00
66762;BME280;53672;48.176;16.338;2023-04-08T07:36:37;99400.41;;;3.80;100.00
66762;BME280;53672;48.176;16.338;2023-04-08T07:41:37;99415.50;;;3.86;100.00
66762;BME280;53672;48.176;16.338;2023-04-08T07:46:39;99417.00;;;3.94;100.00
66762;BME280;53672;48.176;16.338;2023-04-08T07:51:43;99429.66;;;3.98;100.00
66762;BME280;53672;48.176;16.338;2023-04-08T07:56:43;99428.59;;;3.88;100.00
66762;BME280;53672;48.176;16.338;2023-04-08T08:01:45;99441.44;;;3.79;100.00
66762;BME280;53672;48.176;16.338;2023-04-08T08:06:45;99436.13;;;3.79;100.00
66762;BME280;53672;48.176;16.338;2023-04-08T08:11:46;99437.72;;;3.69;100.00
66762;BME280;53672;48.176;16.338;2023-04-08T08:16:48;99444.75;;;3.63;100.00
66762;BME280;53672;48.176;16.338;2023-04-08T08:21:48;99444.81;;;3.86;100.00
66762;BME280;53672;48.176;16.338;2023-04-08T08:26:49;99454.31;;;3.82;100.00
66762;BME280;53672;48.176;16.338;2023-04-08T08:31:50;99459.41;;;3.72;100.00
66762;BME280;53672;48.176;16.338;2023-04-08T08:36:51;99466.38;;;3.85;100.00
66762;BME280;53672;48.176;16.338;2023-04-08T08:41:51;99470.47;;;3.99;100.00
66762;BME280;53672;48.176;16.338;2023-04-08T08:46:53;99473.63;;;4.19;100.00
66762;BME280;53672;48.176;16.338;2023-04-08T08:51:54;99478.97;;;4.31;99.42
66762;BME280;53672;48.176;16.338;2023-04-08T08:56:54;99481.19;;;4.57;98.78
66762;BME280;53672;48.176;16.338;2023-04-08T09:01:56;99486.72;;;4.55;97.35
66762;BME280;53672;48.176;16.338;2023-04-08T09:07:08;99494.84;;;4.49;98.99
66762;BME280;53672;48.176;16.338;2023-04-08T09:12:08;99495.44;;;4.63;96.31
66762;BME280;53672;48.176;16.338;2023-04-08T09:17:10;99507.84;;;4.34;94.81
66762;BME280;53672;48.176;16.338;2023-04-08T09:22:11;99509.25;;;4.36;97.90
66762;BME280;53672;48.176;16.338;2023-04-08T09:27:12;99524.91;;;4.21;96.88
66762;BME280;53672;48.176;16.338;2023-04-08T09:32:14;99521.88;;;4.18;98.91
66762;BME280;53672;48.176;16.338;2023-04-08T09:37:14;99527.69;;;4.26;98.24
66762;BME280;53672;48.176;16.338;2023-04-08T09:42:15;99529.78;;;4.36;95.66
66762;BME280;53672;48.176;16.338;2023-04-08T09:47:22;99538.84;;;4.35;97.54
66762;BME280;53672;48.176;16.338;2023-04-08T09:52:31;99541.16;;;4.31;96.14
66762;BME280;53672;48.176;16.338;2023-04-08T09:57:39;99541.22;;;4.25;98.32
66762;BME280;53672;48.176;16.338;2023-04-08T10:02:46;99539.41;;;4.37;98.81
66762;BME280;53672;48.176;16.338;2023-04-08T10:07:49;99544.19;;;4.70;98.59
66762;BME280;53672;48.176;16.338;2023-04-08T10:12:50;99543.28;;;4.76;98.32
66762;BME280;53672;48.176;16.338;2023-04-08T10:17:52;99539.91;;;4.80;96.17
66762;BME280;53672;48.176;16.338;2023-04-08T10:22:53;99540.47;;;4.94;96.72
66762;BME280;53672;48.176;16.338;2023-04-08T10:27:53;99535.22;;;5.22;92.16
66762;BME280;53672;48.176;16.338;2023-04-08T10:32:56;99548.81;;;5.09;93.16
66762;BME280;53672;48.176;16.338;2023-04-08T10:37:57;99549.03;;;5.07;95.47
66762;BME280;53672;48.176;16.338;2023-04-08T10:42:59;99554.03;;;5.04;95.14
66762;BME280;53672;48.176;16.338;2023-04-08T10:48:15;99559.72;;;5.07;94.09
66762;BME280;53672;48.176;16.338;2023-04-08T10:53:15;99561.38;;;4.85;94.71
66762;BME280;53672;48.176;16.338;2023-04-08T10:58:16;99562.75;;;4.53;95.36
66762;BME280;53672;48.176;16.338;2023-04-08T11:03:18;99559.28;;;4.64;97.70
66762;BME280;53672;48.176;16.338;2023-04-08T11:08:18;99569.72;;;4.77;94.78
66762;BME280;53672;48.176;16.338;2023-04-08T11:13:19;99570.34;;;4.79;95.71
66762;BME280;53672;48.176;16.338;2023-04-08T11:18:21;99575.75;;;4.61;94.32
66762;BME280;53672;48.176;16.338;2023-04-08T11:23:23;99576.81;;;4.83;93.32
66762;BME280;53672;48.176;16.338;2023-04-08T11:28:24;99574.25;;;4.65;92.76
66762;BME280;53672;48.176;16.338;2023-04-08T11:33:26;99577.16;;;4.75;93.81
66762;BME280;53672;48.176;16.338;2023-04-08T11:38:26;99585.88;;;5.05;94.69
66762;BME280;53672;48.176;16.338;2023-04-08T11:43:27;99583.31;;;5.10;94.38
66762;BME280;53672;48.176;16.338;2023-04-08T11:48:29;99585.88;;;4.94;91.48
66762;BME280;53672;48.176;16.338;2023-04-08T11:53:30;99585.19;;;4.98;91.12
66762;BME280;53672;48.176;16.338;2023-04-08T11:58:30;99584.03;;;5.06;91.52
66762;BME280;53672;48.176;16.338;2023-04-08T12:03:32;99582.63;;;4.92;90.39
66762;BME280;53672;48.176;16.338;2023-04-08T12:08:33;99580.19;;;5.14;89.41
66762;BME280;53672;48.176;16.338;2023-04-08T12:13:33;99579.31;;;5.48;89.89
66762;BME280;53672;48.176;16.338;2023-04-08T12:18:35;99582.19;;;5.58;88.66
66762;BME280;53672;48.176;16.338;2023-04-08T12:23:35;99581.53;;;5.79;87.30
66762;BME280;53672;48.176;16.338;2023-04-08T12:28:36;99582.75;;;5.60;91.33
66762;BME280;53672;48.176;16.338;2023-04-08T12:33:38;99582.84;;;5.65;91.04
66762;BME280;53672;48.176;16.338;2023-04-08T12:38:38;99583.81;;;5.59;87.47
66762;BME280;53672;48.176;16.338;2023-04-08T12:43:39;99585.69;;;5.98;89.61
66762;BME280;53672;48.176;16.338;2023-04-08T12:48:41;99582.94;;;6.10;87.01
66762;BME280;53672;48.176;16.338;2023-04-08T12:53:41;99585.84;;;5.92;89.79
66762;BME280;53672;48.176;16.338;2023-04-08T12:58:42;99582.75;;;5.72;87.75
66762;BME280;53672;48.176;16.338;2023-04-08T13:03:43;99594.09;;;5.90;89.21
66762;BME280;53672;48.176;16.338;2023-04-08T13:08:44;99602.16;;;6.07;85.31
66762;BME280;53672;48.176;16.338;2023-04-08T13:13:44;99602.13;;;5.79;83.81
66762;BME280;53672;48.176;16.338;2023-04-08T13:18:46;99590.03;;;5.76;88.43
66762;BME280;53672;48.176;16.338;2023-04-08T13:23:47;99591.50;;;6.24;84.45
66762;BME280;53672;48.176;16.338;2023-04-08T13:28:47;99594.59;;;6.32;85.37
66762;BME280;53672;48.176;16.338;2023-04-08T13:33:49;99593.47;;;6.28;83.94
66762;BME280;53672;48.176;16.338;2023-04-08T13:38:49;99591.41;;;6.19;84.18
66762;BME280;53672;48.176;16.338;2023-04-08T13:43:50;99593.81;;;6.65;80.74
66762;BME280;53672;48.176;16.338;2023-04-08T13:48:52;99595.94;;;6.46;82.02
66762;BME280;53672;48.176;16.338;2023-04-08T13:53:52;99588.94;;;6.45;87.01
66762;BME280;53672;48.176;16.338;2023-04-08T13:58:52;99587.38;;;6.99;81.54
66762;BME280;53672;48.176;16.338;2023-04-08T14:03:54;99591.69;;;7.39;80.94
66762;BME280;53672;48.176;16.338;2023-04-08T14:08:55;99593.16;;;7.30;81.03
66762;BME280;53672;48.176;16.338;2023-04-08T14:13:55;99594.44;;;6.89;79.70
66762;BME280;53672;48.176;16.338;2023-04-08T14:18:57;99602.16;;;6.52;82.22
66762;BME280;53672;48.176;16.338;2023-04-08T14:23:57;99596.97;;;6.62;83.89
66762;BME280;53672;48.176;16.338;2023-04-08T14:28:58;99605.47;;;6.26;82.59
66762;BME280;53672;48.176;16.338;2023-04-08T14:34:00;99602.16;;;6.52;82.44
66762;BME280;53672;48.176;16.338;2023-04-08T14:39:01;99613.69;;;6.69;80.51
66762;BME280;53672;48.176;16.338;2023-04-08T14:44:01;99605.66;;;6.69;81.99
66762;BME280;53672;48.176;16.338;2023-04-08T14:49:03;99610.03;;;6.42;79.81
66762;BME280;53672;48.176;16.338;2023-04-08T14:54:04;99608.16;;;6.42;78.50
66762;BME280;53672;48.176;16.338;2023-04-08T14:59:04;99608.81;;;6.33;83.68
66762;BME280;53672;48.176;16.338;2023-04-08T15:04:06;99607.28;;;6.53;83.61
66762;BME280;53672;48.176;16.338;2023-04-08T15:09:06;99614.34;;;6.76;80.65
66762;BME280;53672;48.176;16.338;2023-04-08T15:14:07;99617.53;;;6.73;79.24
66762;BME280;53672;48.176;16.338;2023-04-08T15:19:09;99622.09;;;6.44;83.36
66762;BME280;53672;48.176;16.338;2023-04-08T15:24:09;99620.19;;;6.40;82.05
66762;BME280;53672;48.176;16.338;2023-04-08T15:29:10;99615.69;;;6.29;79.85
66762;BME280;53672;48.176;16.338;2023-04-08T15:34:11;99619.06;;;6.24;78.46
66762;BME280;53672;48.176;16.338;2023-04-08T15:39:12;99628.25;;;6.28;80.25
66762;BME280;53672;48.176;16.338;2023-04-08T15:44:12;99635.59;;;6.21;79.83
66762;BME280;53672;48.176;16.338;2023-04-08T15:49:14;99640.41;;;6.19;80.22
66762;BME280;53672;48.176;16.338;2023-04-08T15:54:15;99639.06;;;6.05;79.83
66762;BME280;53672;48.176;16.338;2023-04-08T15:59:16;99642.00;;;5.92;82.03
66762;BME280;53672;48.176;16.338;2023-04-08T16:04:17;99646.22;;;5.88;85.16
66762;BME280;53672;48.176;16.338;2023-04-08T16:09:18;99649.69;;;5.88;82.89
66762;BME280;53672;48.176;16.338;2023-04-08T16:14:18;99651.41;;;5.83;82.28
66762;BME280;53672;48.176;16.338;2023-04-08T16:19:20;99659.34;;;5.78;85.75
66762;BME280;53672;48.176;16.338;2023-04-08T16:24:21;99672.47;;;5.79;88.32
66762;BME280;53672;48.176;16.338;2023-04-08T16:29:21;99671.19;;;5.82;85.85
66762;BME280;53672;48.176;16.338;2023-04-08T16:34:23;99679.09;;;5.77;87.05
66762;BME280;53672;48.176;16.338;2023-04-08T16:39:24;99682.38;;;5.67;86.57
66762;BME280;53672;48.176;16.338;2023-04-08T16:44:24;99678.41;;;5.70;82.86
66762;BME280;53672;48.176;16.338;2023-04-08T16:49:26;99688.56;;;5.68;87.62
66762;BME280;53672;48.176;16.338;2023-04-08T16:54:26;99697.59;;;5.67;87.02
66762;BME280;53672;48.176;16.338;2023-04-08T16:59:27;99688.78;;;5.66;85.12
66762;BME280;53672;48.176;16.338;2023-04-08T17:04:29;99697.16;;;5.58;89.58
66762;BME280;53672;48.176;16.338;2023-04-08T17:09:29;99697.84;;;5.53;87.64
66762;BME280;53672;48.176;16.338;2023-04-08T17:14:30;99706.00;;;5.47;90.43
66762;BME280;53672;48.176;16.338;2023-04-08T17:19:32;99707.28;;;5.44;91.98
66762;BME280;53672;48.176;16.338;2023-04-08T17:24:32;99722.50;;;5.32;93.31
66762;BME280;53672;48.176;16.338;2023-04-08T17:29:33;99716.56;;;5.30;92.60
66762;BME280;53672;48.176;16.338;2023-04-08T17:34:34;99725.16;;;5.32;92.30
66762;BME280;53672;48.176;16.338;2023-04-08T17:39:35;99720.88;;;5.20;97.11
66762;BME280;53672;48.176;16.338;2023-04-08T17:44:36;99732.00;;;5.17;95.44
66762;BME280;53672;48.176;16.338;2023-04-08T17:49:37;99734.78;;;5.10;96.72
66762;BME280;53672;48.176;16.338;2023-04-08T17:54:38;99743.03;;;5.08;96.19
66762;BME280;53672;48.176;16.338;2023-04-08T17:59:38;99743.50;;;5.05;95.05
66762;BME280;53672;48.176;16.338;2023-04-08T18:04:40;99745.81;;;5.02;95.45
66762;BME280;53672;48.176;16.338;2023-04-08T18:09:41;99759.50;;;5.05;95.05
66762;BME280;53672;48.176;16.338;2023-04-08T18:14:41;99758.34;;;5.01;95.13
66762;BME280;53672;48.176;16.338;2023-04-08T18:19:43;99768.44;;;4.99;97.09
66762;BME280;53672;48.176;16.338;2023-04-08T18:24:43;99775.03;;;4.97;95.77
66762;BME280;53672;48.176;16.338;2023-04-08T18:29:44;99777.28;;;5.00;96.08
66762;BME280;53672;48.176;16.338;2023-04-08T18:34:46;99783.66;;;4.99;97.59
66762;BME280;53672;48.176;16.338;2023-04-08T18:39:49;99780.16;;;4.98;98.75
66762;BME280;53672;48.176;16.338;2023-04-08T18:44:50;99795.16;;;4.99;99.48
66762;BME280;53672;48.176;16.338;2023-04-08T18:49:52;99796.28;;;4.92;100.00
66762;BME280;53672;48.176;16.338;2023-04-08T18:54:52;99802.75;;;4.84;100.00
66762;BME280;53672;48.176;16.338;2023-04-08T18:59:53;99797.06;;;4.81;100.00
66762;BME280;53672;48.176;16.338;2023-04-08T19:04:55;99800.41;;;4.76;100.00
66762;BME280;53672;48.176;16.338;2023-04-08T19:09:55;99796.78;;;4.71;100.00
66762;BME280;53672;48.176;16.338;2023-04-08T19:14:56;99799.44;;;4.71;100.00
66762;BME280;53672;48.176;16.338;2023-04-08T19:19:58;99798.88;;;4.69;100.00
66762;BME280;53672;48.176;16.338;2023-04-08T19:24:58;99800.13;;;4.66;100.00
66762;BME280;53672;48.176;16.338;2023-04-08T19:29:59;99791.44;;;4.71;100.00
66762;BME280;53672;48.176;16.338;2023-04-08T19:35:01;99793.28;;;4.70;99.39
66762;BME280;53672;48.176;16.338;2023-04-08T19:40:01;99793.38;;;4.64;100.00
66762;BME280;53672;48.176;16.338;2023-04-08T19:45:02;99795.78;;;4.53;100.00
66762;BME280;53672;48.176;16.338;2023-04-08T19:50:05;99796.13;;;4.57;100.00
66762;BME280;53672;48.176;16.338;2023-04-08T19:55:07;99792.16;;;4.48;100.00
66762;BME280;53672;48.176;16.338;2023-04-08T20:00:08;99777.84;;;4.42;100.00
66762;BME280;53672;48.176;16.338;2023-04-08T20:05:10;99789.94;;;4.45;100.00
66762;BME280;53672;48.176;16.338;2023-04-08T20:10:11;99785.34;;;4.34;100.00
66762;BME280;53672;48.176;16.338;2023-04-08T20:15:11;99790.06;;;4.32;100.00
66762;BME280;53672;48.176;16.338;2023-04-08T20:20:13;99794.47;;;4.26;100.00
66762;BME280;53672;48.176;16.338;2023-04-08T20:25:14;99796.56;;;4.24;100.00
66762;BME280;53672;48.176;16.338;2023-04-08T20:30:14;99790.84;;;4.21;100.00
66762;BME280;53672;48.176;16.338;2023-04-08T20:35:16;99790.03;;;4.20;100.00
66762;BME280;53672;48.176;16.338;2023-04-08T20:40:17;99790.97;;;4.26;100.00
66762;BME280;53672;48.176;16.338;2023-04-08T20:45:17;99793.28;;;4.22;100.00
66762;BME280;53672;48.176;16.338;2023-04-08T20:50:19;99793.28;;;4.22;100.00
66762;BME280;53672;48.176;16.338;2023-04-08T20:55:20;99787.72;;;4.24;100.00
66762;BME280;53672;48.176;16.338;2023-04-08T21:00:20;99795.00;;;4.35;100.00
66762;BME280;53672;48.176;16.338;2023-04-08T21:05:22;99805.06;;;4.33;100.00
66762;BME280;53672;48.176;16.338;2023-04-08T21:10:23;99800.81;;;4.25;100.00
66762;BME280;53672;48.176;16.338;2023-04-08T21:15:23;99799.88;;;4.20;100.00
66762;BME280;53672;48.176;16.338;2023-04-08T21:20:25;99795.81;;;4.17;100.00
66762;BME280;53672;48.176;16.338;2023-04-08T21:25:26;99801.53;;;4.21;100.00
66762;BME280;53672;48.176;16.338;2023-04-08T21:30:26;99795.94;;;4.22;100.00
66762;BME280;53672;48.176;16.338;2023-04-08T21:35:28;99797.13;;;4.26;100.00
66762;BME280;53672;48.176;16.338;2023-04-08T21:40:28;99796.09;;;4.27;100.00
66762;BME280;53672;48.176;16.338;2023-04-08T21:45:29;99792.38;;;4.28;100.00
66762;BME280;53672;48.176;16.338;2023-04-08T21:50:31;99792.38;;;4.28;100.00
66762;BME280;53672;48.176;16.338;2023-04-08T21:55:31;99790.69;;;4.34;99.77
66762;BME280;53672;48.176;16.338;2023-04-08T22:00:32;99789.50;;;4.30;100.00
66762;BME280;53672;48.176;16.338;2023-04-08T22:05:34;99790.31;;;4.30;100.00
66762;BME280;53672;48.176;16.338;2023-04-08T22:10:34;99778.38;;;4.33;99.52
66762;BME280;53672;48.176;16.338;2023-04-08T22:15:35;99781.28;;;4.31;99.51
66762;BME280;53672;48.176;16.338;2023-04-08T22:20:37;99779.41;;;4.32;99.32
66762;BME280;53672;48.176;16.338;2023-04-08T22:25:37;99779.28;;;4.27;99.40
66762;BME280;53672;48.176;16.338;2023-04-08T22:30:38;99775.56;;;4.28;99.81
66762;BME280;53672;48.176;16.338;2023-04-08T22:35:39;99776.44;;;4.22;100.00
66762;BME280;53672;48.176;16.338;2023-04-08T22:40:40;99781.00;;;4.21;100.00
66762;BME280;53672;48.176;16.338;2023-04-08T22:45:40;99774.03;;;4.20;100.00
66762;BME280;53672;48.176;16.338;2023-04-08T22:50:42;99775.22;;;4.24;100.00
66762;BME280;53672;48.176;16.338;2023-04-08T22:55:43;99772.53;;;4.24;100.00
66762;BME280;53672;48.176;16.338;2023-04-08T23:00:43;99780.31;;;4.26;100.00
66762;BME280;53672;48.176;16.338;2023-04-08T23:05:45;99773.56;;;4.23;100.00
66762;BME280;53672;48.176;16.338;2023-04-08T23:10:45;99779.72;;;4.24;100.00
66762;BME280;53672;48.176;16.338;2023-04-08T23:15:46;99788.19;;;4.21;100.00
66762;BME280;53672;48.176;16.338;2023-04-08T23:20:51;99778.25;;;4.28;100.00
66762;BME280;53672;48.176;16.338;2023-04-08T23:25:52;99779.72;;;4.24;100.00
66762;BME280;53672;48.176;16.338;2023-04-08T23:30:52;99789.78;;;4.22;100.00
66762;BME280;53672;48.176;16.338;2023-04-08T23:35:54;99785.06;;;4.24;100.00
66762;BME280;53672;48.176;16.338;2023-04-08T23:40:54;99786.25;;;4.28;100.00
66762;BME280;53672;48.176;16.338;2023-04-08T23:45:55;99782.97;;;4.26;100.00
66762;BME280;53672;48.176;16.338;2023-04-08T23:50:57;99782.53;;;4.29;100.00
66762;BME280;53672;48.176;16.338;2023-04-08T23:56:02;99774.75;;;4.27;100.00
